createdAt,value
2016-09-21T00:00:19.186Z,1007.68
2016-09-21T00:01:19.206Z,1007.67
2016-09-21T00:02:19.227Z,1007.63
2016-09-21T00:03:19.246Z,1007.63
2016-09-21T00:04:19.266Z,1007.66
2016-09-21T00:05:19.287Z,1007.64
2016-09-21T00:06:19.308Z,1007.62
2016-09-21T00:07:19.326Z,1007.64
2016-09-21T00:08:19.350Z,1007.63
2016-09-21T00:09:19.367Z,1007.59
2016-09-21T00:10:19.387Z,1007.59
2016-09-21T00:11:19.408Z,1007.59
2016-09-21T00:12:19.428Z,1007.6
2016-09-21T00:13:19.449Z,1007.58
2016-09-21T00:14:19.468Z,1007.55
2016-09-21T00:15:19.488Z,1007.6
2016-09-21T00:16:19.510Z,1007.57
2016-09-21T00:17:19.530Z,1007.58
2016-09-21T00:18:19.549Z,1007.59
2016-09-21T00:19:19.570Z,1007.64
2016-09-21T00:20:19.589Z,1007.62
2016-09-21T00:21:19.610Z,1007.59
2016-09-21T00:22:19.631Z,1007.61
2016-09-21T00:23:19.652Z,1007.62
2016-09-21T00:24:19.670Z,1007.6
2016-09-21T00:25:19.689Z,1007.6
2016-09-21T00:26:19.711Z,1007.6
2016-09-21T00:27:19.731Z,1007.55
2016-09-21T00:28:19.750Z,1007.54
2016-09-21T00:29:19.771Z,1007.58
2016-09-21T00:30:19.798Z,1007.56
2016-09-21T00:31:19.813Z,1007.55
2016-09-21T00:32:26.098Z,1007.59
2016-09-21T00:33:19.854Z,1007.58
2016-09-21T00:34:19.873Z,1007.53
2016-09-21T00:35:19.893Z,1007.56
2016-09-21T00:36:19.913Z,1007.56
2016-09-21T00:37:19.933Z,1007.55
2016-09-21T00:38:19.952Z,1007.54
2016-09-21T00:39:19.974Z,1007.54
2016-09-21T00:40:19.993Z,1007.54
2016-09-21T00:41:20.013Z,1007.57
2016-09-21T00:42:20.035Z,1007.56
2016-09-21T00:43:20.054Z,1007.57
2016-09-21T00:44:20.073Z,1007.59
2016-09-21T00:45:20.093Z,1007.59
2016-09-21T00:46:20.114Z,1007.58
2016-09-21T00:47:20.133Z,1007.59
2016-09-21T00:48:20.155Z,1007.54
2016-09-21T00:49:20.173Z,1007.59
2016-09-21T00:50:20.194Z,1007.58
2016-09-21T00:51:20.215Z,1007.56
2016-09-21T00:52:20.233Z,1007.52
2016-09-21T00:53:20.254Z,1007.57
2016-09-21T00:54:20.273Z,1007.57
2016-09-21T00:55:20.294Z,1007.54
2016-09-21T00:56:20.315Z,1007.56
2016-09-21T00:57:20.343Z,1007.55
2016-09-21T00:58:20.354Z,1007.51
2016-09-21T00:59:20.374Z,1007.54
2016-09-21T01:00:20.396Z,1007.54
2016-09-21T01:01:20.415Z,1007.55
2016-09-21T01:02:20.435Z,1007.56
2016-09-21T01:03:20.461Z,1007.54
2016-09-21T01:04:20.475Z,1007.51
2016-09-21T01:05:20.496Z,1007.54
2016-09-21T01:06:20.516Z,1007.53
2016-09-21T01:07:20.535Z,1007.51
2016-09-21T01:08:20.556Z,1007.5
2016-09-21T01:09:20.575Z,1007.48
2016-09-21T01:10:20.596Z,1007.49
2016-09-21T01:11:20.616Z,1007.49
2016-09-21T01:12:20.636Z,1007.51
2016-09-21T01:13:20.657Z,1007.5
2016-09-21T01:14:20.675Z,1007.44
2016-09-21T01:15:20.697Z,1007.42
2016-09-21T01:16:20.716Z,1007.42
2016-09-21T01:17:20.736Z,1007.42
2016-09-21T01:18:20.756Z,1007.4
2016-09-21T01:19:20.776Z,1007.38
2016-09-21T01:20:20.797Z,1007.34
2016-09-21T01:21:20.816Z,1007.34
2016-09-21T01:22:20.837Z,1007.32
2016-09-21T01:23:20.857Z,1007.3
2016-09-21T01:24:20.875Z,1007.33
2016-09-21T01:25:20.896Z,1007.33
2016-09-21T01:26:20.917Z,1007.32
2016-09-21T01:27:20.937Z,1007.36
2016-09-21T01:28:20.957Z,1007.37
2016-09-21T01:29:20.978Z,1007.34
2016-09-21T01:30:21.002Z,1007.36
2016-09-21T01:31:21.016Z,1007.35
2016-09-21T01:32:21.037Z,1007.37
2016-09-21T01:33:21.063Z,1007.35
2016-09-21T01:34:21.077Z,1007.37
2016-09-21T01:35:21.098Z,1007.4
2016-09-21T01:36:21.120Z,1007.42
2016-09-21T01:37:21.139Z,1007.44
2016-09-21T01:38:21.158Z,1007.42
2016-09-21T01:39:21.178Z,1007.42
2016-09-21T01:40:21.198Z,1007.43
2016-09-21T01:41:21.218Z,1007.4
2016-09-21T01:42:21.238Z,1007.41
2016-09-21T01:43:21.257Z,1007.4
2016-09-21T01:44:21.280Z,1007.39
2016-09-21T01:45:21.298Z,1007.42
2016-09-21T01:46:21.317Z,1007.45
2016-09-21T01:47:21.338Z,1007.44
2016-09-21T01:48:21.359Z,1007.44
2016-09-21T01:49:21.380Z,1007.44
2016-09-21T01:50:21.397Z,1007.43
2016-09-21T01:51:21.418Z,1007.47
2016-09-21T01:52:21.438Z,1007.49
2016-09-21T01:53:21.457Z,1007.45
2016-09-21T01:54:21.478Z,1007.47
2016-09-21T01:55:21.498Z,1007.45
2016-09-21T01:56:21.517Z,1007.45
2016-09-21T01:57:21.538Z,1007.45
2016-09-21T01:58:21.557Z,1007.45
2016-09-21T01:59:21.578Z,1007.46
2016-09-21T02:00:21.596Z,1007.45
2016-09-21T02:01:21.617Z,1007.4
2016-09-21T02:02:21.638Z,1007.44
2016-09-21T02:03:21.659Z,1007.43
2016-09-21T02:04:21.685Z,1007.44
2016-09-21T02:05:21.698Z,1007.44
2016-09-21T02:06:21.717Z,1007.43
2016-09-21T02:07:21.741Z,1007.43
2016-09-21T02:08:21.757Z,1007.43
2016-09-21T02:09:21.890Z,1007.4
2016-09-21T02:10:21.798Z,1007.45
2016-09-21T02:11:21.821Z,1007.4
2016-09-21T02:12:21.839Z,1007.44
2016-09-21T02:13:21.977Z,1007.4
2016-09-21T02:14:21.984Z,1007.42
2016-09-21T02:15:22.008Z,1007.41
2016-09-21T02:16:21.917Z,1007.41
2016-09-21T02:17:22.048Z,1007.39
2016-09-21T02:18:22.069Z,1007.42
2016-09-21T02:19:22.067Z,1007.41
2016-09-21T02:20:22.100Z,1007.4
2016-09-21T02:21:22.110Z,1007.45
2016-09-21T02:22:22.117Z,1007.42
2016-09-21T02:23:22.131Z,1007.38
2016-09-21T02:24:22.125Z,1007.38
2016-09-21T02:25:22.133Z,1007.37
2016-09-21T02:26:22.142Z,1007.37
2016-09-21T02:27:22.152Z,1007.34
2016-09-21T02:28:22.161Z,1007.36
2016-09-21T02:29:22.198Z,1007.37
2016-09-21T02:30:22.207Z,1007.38
2016-09-21T02:31:22.218Z,1007.36
2016-09-21T02:32:22.238Z,1007.36
2016-09-21T02:33:22.257Z,1007.37
2016-09-21T02:34:22.277Z,1007.39
2016-09-21T02:35:22.297Z,1007.38
2016-09-21T02:36:22.318Z,1007.35
2016-09-21T02:37:22.427Z,1007.36
2016-09-21T02:38:22.359Z,1007.37
2016-09-21T02:39:22.378Z,1007.36
2016-09-21T02:40:22.397Z,1007.36
2016-09-21T02:41:22.418Z,1007.4
2016-09-21T02:42:22.437Z,1007.4
2016-09-21T02:43:22.459Z,1007.39
2016-09-21T02:44:22.480Z,1007.38
2016-09-21T02:45:22.497Z,1007.4
2016-09-21T02:46:22.516Z,1007.39
2016-09-21T02:47:22.538Z,1007.38
2016-09-21T02:48:22.556Z,1007.39
2016-09-21T02:49:22.577Z,1007.4
2016-09-21T02:50:22.597Z,1007.43
2016-09-21T02:51:22.619Z,1007.41
2016-09-21T02:52:22.637Z,1007.43
2016-09-21T02:53:22.657Z,1007.41
2016-09-21T02:54:22.729Z,1007.41
2016-09-21T02:55:22.697Z,1007.43
2016-09-21T02:56:22.717Z,1007.41
2016-09-21T02:57:22.738Z,1007.4
2016-09-21T02:58:22.757Z,1007.41
2016-09-21T02:59:22.777Z,1007.39
2016-09-21T03:00:22.798Z,1007.39
2016-09-21T03:01:22.818Z,1007.38
2016-09-21T03:02:22.840Z,1007.37
2016-09-21T03:03:22.857Z,1007.34
2016-09-21T03:04:22.879Z,1007.37
2016-09-21T03:05:22.898Z,1007.36
2016-09-21T03:06:22.918Z,1007.36
2016-09-21T03:07:22.938Z,1007.38
2016-09-21T03:08:22.957Z,1007.39
2016-09-21T03:09:22.978Z,1007.38
2016-09-21T03:10:23.000Z,1007.37
2016-09-21T03:11:23.019Z,1007.38
2016-09-21T03:12:23.040Z,1007.38
2016-09-21T03:13:23.059Z,1007.41
2016-09-21T03:14:23.079Z,1007.44
2016-09-21T03:15:23.100Z,1007.44
2016-09-21T03:16:23.120Z,1007.42
2016-09-21T03:17:23.140Z,1007.41
2016-09-21T03:18:23.161Z,1007.45
2016-09-21T03:19:23.180Z,1007.42
2016-09-21T03:20:23.198Z,1007.46
2016-09-21T03:21:23.220Z,1007.45
2016-09-21T03:22:23.241Z,1007.48
2016-09-21T03:23:23.260Z,1007.47
2016-09-21T03:24:23.280Z,1007.48
2016-09-21T03:25:23.299Z,1007.42
2016-09-21T03:26:23.319Z,1007.46
2016-09-21T03:27:23.341Z,1007.45
2016-09-21T03:28:23.360Z,1007.49
2016-09-21T03:29:23.383Z,1007.47
2016-09-21T03:30:23.404Z,1007.44
2016-09-21T03:31:23.426Z,1007.48
2016-09-21T03:32:23.440Z,1007.45
2016-09-21T03:33:23.466Z,1007.44
2016-09-21T03:34:23.482Z,1007.43
2016-09-21T03:35:23.500Z,1007.42
2016-09-21T03:36:23.521Z,1007.4
2016-09-21T03:37:23.540Z,1007.46
2016-09-21T03:38:23.560Z,1007.4
2016-09-21T03:39:23.580Z,1007.44
2016-09-21T03:40:23.599Z,1007.43
2016-09-21T03:41:23.621Z,1007.43
2016-09-21T03:42:23.640Z,1007.42
2016-09-21T03:43:23.659Z,1007.42
2016-09-21T03:44:23.680Z,1007.42
2016-09-21T03:45:23.700Z,1007.43
2016-09-21T03:46:23.719Z,1007.43
2016-09-21T03:47:23.741Z,1007.41
2016-09-21T03:48:23.761Z,1007.44
2016-09-21T03:49:23.780Z,1007.42
2016-09-21T03:50:23.800Z,1007.44
2016-09-21T03:51:23.821Z,1007.44
2016-09-21T03:52:23.840Z,1007.4
2016-09-21T03:53:23.860Z,1007.43
2016-09-21T03:54:23.931Z,1007.41
2016-09-21T03:55:23.905Z,1007.4
2016-09-21T03:56:23.921Z,1007.41
2016-09-21T03:57:23.940Z,1007.41
2016-09-21T03:58:23.960Z,1007.39
2016-09-21T03:59:23.980Z,1007.41
2016-09-21T04:00:24.001Z,1007.42
2016-09-21T04:01:24.020Z,1007.43
2016-09-21T04:02:24.040Z,1007.41
2016-09-21T04:03:24.061Z,1007.41
2016-09-21T04:04:24.080Z,1007.45
2016-09-21T04:05:24.100Z,1007.45
2016-09-21T04:06:24.120Z,1007.42
2016-09-21T04:07:24.141Z,1007.44
2016-09-21T04:08:24.159Z,1007.44
2016-09-21T04:09:24.180Z,1007.46
2016-09-21T04:10:24.202Z,1007.38
2016-09-21T04:11:24.220Z,1007.39
2016-09-21T04:12:24.240Z,1007.4
2016-09-21T04:13:24.261Z,1007.39
2016-09-21T04:14:24.279Z,1007.4
2016-09-21T04:15:24.298Z,1007.45
2016-09-21T04:16:24.321Z,1007.43
2016-09-21T04:17:24.339Z,1007.46
2016-09-21T04:18:24.361Z,1007.42
2016-09-21T04:19:24.379Z,1007.44
2016-09-21T04:20:24.399Z,1007.46
2016-09-21T04:21:24.420Z,1007.44
2016-09-21T04:22:24.440Z,1007.46
2016-09-21T04:23:24.459Z,1007.46
2016-09-21T04:24:24.481Z,1007.47
2016-09-21T04:25:24.500Z,1007.44
2016-09-21T04:26:24.519Z,1007.46
2016-09-21T04:27:24.539Z,1007.44
2016-09-21T04:28:24.559Z,1007.44
2016-09-21T04:29:24.583Z,1007.43
2016-09-21T04:30:24.600Z,1007.43
2016-09-21T04:31:24.622Z,1007.44
2016-09-21T04:32:24.640Z,1007.49
2016-09-21T04:33:24.659Z,1007.44
2016-09-21T04:34:24.680Z,1007.48
2016-09-21T04:35:24.700Z,1007.46
2016-09-21T04:36:24.721Z,1007.46
2016-09-21T04:37:24.739Z,1007.44
2016-09-21T04:38:24.758Z,1007.44
2016-09-21T04:39:24.782Z,1007.45
2016-09-21T04:40:24.799Z,1007.46
2016-09-21T04:41:24.819Z,1007.46
2016-09-21T04:42:24.842Z,1007.47
2016-09-21T04:43:24.861Z,1007.48
2016-09-21T04:44:24.880Z,1007.46
2016-09-21T04:45:24.906Z,1007.46
2016-09-21T04:46:24.920Z,1007.46
2016-09-21T04:47:24.941Z,1007.47
2016-09-21T04:48:24.959Z,1007.48
2016-09-21T04:49:24.980Z,1007.49
2016-09-21T04:50:25.000Z,1007.46
2016-09-21T04:51:25.021Z,1007.49
2016-09-21T04:52:25.041Z,1007.5
2016-09-21T04:53:25.060Z,1007.49
2016-09-21T04:54:25.080Z,1007.5
2016-09-21T04:55:25.099Z,1007.46
2016-09-21T04:56:25.120Z,1007.48
2016-09-21T04:57:25.141Z,1007.53
2016-09-21T04:58:25.161Z,1007.55
2016-09-21T04:59:25.179Z,1007.52
2016-09-21T05:00:25.203Z,1007.53
2016-09-21T05:01:25.220Z,1007.55
2016-09-21T05:02:25.241Z,1007.52
2016-09-21T05:03:25.260Z,1007.54
2016-09-21T05:04:25.306Z,1007.55
2016-09-21T05:05:25.300Z,1007.5
2016-09-21T05:06:25.320Z,1007.5
2016-09-21T05:07:25.340Z,1007.47
2016-09-21T05:08:25.361Z,1007.48
2016-09-21T05:09:25.380Z,1007.51
2016-09-21T05:10:25.400Z,1007.49
2016-09-21T05:11:25.427Z,1007.49
2016-09-21T05:12:25.439Z,1007.53
2016-09-21T05:13:25.462Z,1007.54
2016-09-21T05:14:25.507Z,1007.51
2016-09-21T05:15:25.499Z,1007.51
2016-09-21T05:16:25.519Z,1007.51
2016-09-21T05:17:25.539Z,1007.54
2016-09-21T05:18:25.559Z,1007.5
2016-09-21T05:19:25.580Z,1007.48
2016-09-21T05:20:25.600Z,1007.47
2016-09-21T05:21:25.626Z,1007.5
2016-09-21T05:22:25.640Z,1007.51
2016-09-21T05:23:25.659Z,1007.48
2016-09-21T05:24:25.680Z,1007.45
2016-09-21T05:25:25.699Z,1007.43
2016-09-21T05:26:25.719Z,1007.43
2016-09-21T05:27:25.741Z,1007.45
2016-09-21T05:28:25.758Z,1007.39
2016-09-21T05:29:25.779Z,1007.42
2016-09-21T05:30:25.801Z,1007.43
2016-09-21T05:31:25.825Z,1007.44
2016-09-21T05:32:25.839Z,1007.49
2016-09-21T05:33:25.858Z,1007.48
2016-09-21T05:34:25.880Z,1007.49
2016-09-21T05:35:25.899Z,1007.54
2016-09-21T05:36:25.920Z,1007.58
2016-09-21T05:37:25.941Z,1007.6
2016-09-21T05:38:25.961Z,1007.57
2016-09-21T05:39:25.980Z,1007.52
2016-09-21T05:40:25.999Z,1007.54
2016-09-21T05:41:26.020Z,1007.55
2016-09-21T05:42:26.040Z,1007.58
2016-09-21T05:43:26.068Z,1007.57
2016-09-21T05:44:26.080Z,1007.57
2016-09-21T05:45:26.101Z,1007.57
2016-09-21T05:46:26.121Z,1007.56
2016-09-21T05:47:26.140Z,1007.57
2016-09-21T05:48:26.160Z,1007.55
2016-09-21T05:49:26.180Z,1007.55
2016-09-21T05:50:26.200Z,1007.53
2016-09-21T05:51:26.219Z,1007.52
2016-09-21T05:52:26.241Z,1007.55
2016-09-21T05:53:26.260Z,1007.56
2016-09-21T05:54:26.279Z,1007.55
2016-09-21T05:55:26.301Z,1007.54
2016-09-21T05:56:26.320Z,1007.52
2016-09-21T05:57:26.349Z,1007.57
2016-09-21T05:58:26.361Z,1007.58
2016-09-21T05:59:26.382Z,1007.55
2016-09-21T06:00:26.401Z,1007.53
2016-09-21T06:01:26.422Z,1007.56
2016-09-21T06:02:26.441Z,1007.55
2016-09-21T06:03:26.468Z,1007.59
2016-09-21T06:04:26.483Z,1007.6
2016-09-21T06:05:26.510Z,1007.58
2016-09-21T06:06:26.521Z,1007.58
2016-09-21T06:07:26.541Z,1007.6
2016-09-21T06:08:26.563Z,1007.6
2016-09-21T06:09:26.582Z,1007.58
2016-09-21T06:10:26.602Z,1007.57
2016-09-21T06:11:26.622Z,1007.59
2016-09-21T06:12:26.642Z,1007.62
2016-09-21T06:13:26.663Z,1007.61
2016-09-21T06:14:26.685Z,1007.6
2016-09-21T06:15:26.704Z,1007.57
2016-09-21T06:16:26.724Z,1007.57
2016-09-21T06:17:26.743Z,1007.59
2016-09-21T06:18:26.765Z,1007.59
2016-09-21T06:19:26.785Z,1007.58
2016-09-21T06:20:26.806Z,1007.61
2016-09-21T06:21:26.825Z,1007.57
2016-09-21T06:22:26.845Z,1007.58
2016-09-21T06:23:26.865Z,1007.59
2016-09-21T06:24:26.888Z,1007.57
2016-09-21T06:25:26.906Z,1007.57
2016-09-21T06:26:26.927Z,1007.64
2016-09-21T06:27:26.945Z,1007.58
2016-09-21T06:28:26.966Z,1007.53
2016-09-21T06:29:26.988Z,1007.6
2016-09-21T06:30:27.007Z,1007.61
2016-09-21T06:31:27.026Z,1007.64
2016-09-21T06:32:27.048Z,1007.61
2016-09-21T06:33:27.067Z,1007.6
2016-09-21T06:34:27.086Z,1007.64
2016-09-21T06:35:27.108Z,1007.61
2016-09-21T06:36:27.129Z,1007.65
2016-09-21T06:37:27.150Z,1007.62
2016-09-21T06:38:27.170Z,1007.63
2016-09-21T06:39:27.189Z,1007.62
2016-09-21T06:40:27.212Z,1007.57
2016-09-21T06:41:27.237Z,1007.61
2016-09-21T06:42:27.249Z,1007.62
2016-09-21T06:43:27.277Z,1007.62
2016-09-21T06:44:27.291Z,1007.6
2016-09-21T06:45:27.312Z,1007.61
2016-09-21T06:46:27.332Z,1007.62
2016-09-21T06:47:27.360Z,1007.61
2016-09-21T06:48:27.373Z,1007.64
2016-09-21T06:49:27.392Z,1007.63
2016-09-21T06:50:27.412Z,1007.66
2016-09-21T06:51:27.434Z,1007.67
2016-09-21T06:52:27.452Z,1007.66
2016-09-21T06:53:27.474Z,1007.66
2016-09-21T06:54:27.545Z,1007.67
2016-09-21T06:55:27.514Z,1007.68
2016-09-21T06:56:27.536Z,1007.65
2016-09-21T06:57:27.555Z,1007.66
2016-09-21T06:58:27.576Z,1007.63
2016-09-21T06:59:27.596Z,1007.66
2016-09-21T07:00:27.617Z,1007.66
2016-09-21T07:01:27.638Z,1007.62
2016-09-21T07:02:27.658Z,1007.64
2016-09-21T07:03:27.686Z,1007.63
2016-09-21T07:04:27.699Z,1007.66
2016-09-21T07:05:27.731Z,1007.62
2016-09-21T07:06:27.740Z,1007.66
2016-09-21T07:07:27.759Z,1007.67
2016-09-21T07:08:27.781Z,1007.66
2016-09-21T07:09:27.801Z,1007.63
2016-09-21T07:10:27.823Z,1007.65
2016-09-21T07:11:27.842Z,1007.67
2016-09-21T07:12:27.864Z,1007.65
2016-09-21T07:13:27.892Z,1007.67
2016-09-21T07:14:27.902Z,1007.66
2016-09-21T07:15:27.925Z,1007.68
2016-09-21T07:16:27.945Z,1007.71
2016-09-21T07:17:27.974Z,1007.72
2016-09-21T07:18:27.986Z,1007.7
2016-09-21T07:19:28.007Z,1007.68
2016-09-21T07:20:28.028Z,1007.68
2016-09-21T07:21:28.050Z,1007.69
2016-09-21T07:22:28.068Z,1007.68
2016-09-21T07:23:28.092Z,1007.67
2016-09-21T07:24:28.110Z,1007.67
2016-09-21T07:25:28.132Z,1007.66
2016-09-21T07:26:28.152Z,1007.69
2016-09-21T07:27:28.172Z,1007.68
2016-09-21T07:28:28.194Z,1007.69
2016-09-21T07:29:28.213Z,1007.68
2016-09-21T07:30:28.236Z,1007.68
2016-09-21T07:31:28.254Z,1007.7
2016-09-21T07:32:28.279Z,1007.67
2016-09-21T07:33:28.296Z,1007.69
2016-09-21T07:34:28.317Z,1007.72
2016-09-21T07:35:28.338Z,1007.75
2016-09-21T07:36:28.358Z,1007.72
2016-09-21T07:37:28.380Z,1007.76
2016-09-21T07:38:28.399Z,1007.73
2016-09-21T07:39:28.429Z,1007.75
2016-09-21T07:40:28.442Z,1007.77
2016-09-21T07:41:28.463Z,1007.78
2016-09-21T07:42:28.486Z,1007.81
2016-09-21T07:43:28.505Z,1007.79
2016-09-21T07:44:28.524Z,1007.78
2016-09-21T07:45:28.547Z,1007.84
2016-09-21T07:46:28.566Z,1007.84
2016-09-21T07:47:28.595Z,1007.85
2016-09-21T07:48:28.609Z,1007.83
2016-09-21T07:49:28.638Z,1007.87
2016-09-21T07:50:28.650Z,1007.87
2016-09-21T07:51:28.674Z,1007.87
2016-09-21T07:52:28.692Z,1007.86
2016-09-21T07:53:28.716Z,1007.88
2016-09-21T07:54:28.785Z,1007.89
2016-09-21T07:55:28.756Z,1007.92
2016-09-21T07:56:28.777Z,1007.93
2016-09-21T07:57:28.798Z,1007.93
2016-09-21T07:58:28.817Z,1007.93
2016-09-21T07:59:28.839Z,1007.97
2016-09-21T08:00:28.860Z,1007.98
2016-09-21T08:01:28.882Z,1007.98
2016-09-21T08:02:28.924Z,1008.01
2016-09-21T08:03:28.923Z,1007.99
2016-09-21T08:04:28.944Z,1007.98
2016-09-21T08:05:28.965Z,1007.98
2016-09-21T08:06:28.986Z,1007.99
2016-09-21T08:07:29.007Z,1008.01
2016-09-21T08:08:29.032Z,1008.02
2016-09-21T08:09:29.050Z,1007.99
2016-09-21T08:10:29.073Z,1008.03
2016-09-21T08:11:29.092Z,1008.06
2016-09-21T08:12:29.113Z,1008.05
2016-09-21T08:13:29.133Z,1008.04
2016-09-21T08:14:29.155Z,1008.04
2016-09-21T08:15:29.176Z,1008.05
2016-09-21T08:16:29.201Z,1008.04
2016-09-21T08:17:29.218Z,1008.08
2016-09-21T08:18:29.252Z,1008.04
2016-09-21T08:19:29.260Z,1008.04
2016-09-21T08:20:29.482Z,1008.04
2016-09-21T08:21:29.304Z,1008.03
2016-09-21T08:22:29.326Z,1008.01
2016-09-21T08:23:29.349Z,1008.03
2016-09-21T08:24:29.367Z,1008.04
2016-09-21T08:25:29.389Z,1008.03
2016-09-21T08:26:29.411Z,1008.03
2016-09-21T08:27:29.454Z,1008.04
2016-09-21T08:28:29.452Z,1008.05
2016-09-21T08:29:29.477Z,1008.04
2016-09-21T08:30:29.498Z,1008.07
2016-09-21T08:31:29.518Z,1008.05
2016-09-21T08:32:29.539Z,1008.08
2016-09-21T08:33:29.562Z,1008.03
2016-09-21T08:34:29.583Z,1008.08
2016-09-21T08:35:29.604Z,1008.07
2016-09-21T08:36:29.624Z,1008.08
2016-09-21T08:37:29.649Z,1008.07
2016-09-21T08:38:29.667Z,1008.07
2016-09-21T08:39:29.690Z,1008.09
2016-09-21T08:40:29.711Z,1008.09
2016-09-21T08:41:29.733Z,1008.09
2016-09-21T08:42:29.753Z,1008.09
2016-09-21T08:43:29.775Z,1008.08
2016-09-21T08:44:29.798Z,1008.06
2016-09-21T08:45:29.820Z,1008.09
2016-09-21T08:46:29.840Z,1008.07
2016-09-21T08:47:29.863Z,1008.08
2016-09-21T08:48:29.884Z,1008.11
2016-09-21T08:49:30.058Z,1008.15
2016-09-21T08:50:29.928Z,1008.09
2016-09-21T08:51:29.948Z,1008.09
2016-09-21T08:52:29.973Z,1008.07
2016-09-21T08:53:29.994Z,1008.09
2016-09-21T08:54:30.015Z,1008.13
2016-09-21T08:55:30.037Z,1008.1
2016-09-21T08:56:30.057Z,1008.1
2016-09-21T08:57:30.090Z,1008.12
2016-09-21T08:58:30.102Z,1008.1
2016-09-21T08:59:30.124Z,1008.11
2016-09-21T09:00:30.145Z,1008.11
2016-09-21T09:01:30.174Z,1008.11
2016-09-21T09:02:30.189Z,1008.1
2016-09-21T09:03:30.213Z,1008.12
2016-09-21T09:04:30.233Z,1008.09
2016-09-21T09:05:30.255Z,1008.07
2016-09-21T09:06:30.277Z,1008.09
2016-09-21T09:07:30.301Z,1008.11
2016-09-21T09:08:30.320Z,1008.12
2016-09-21T09:09:30.343Z,1008.1
2016-09-21T09:10:30.364Z,1008.13
2016-09-21T09:11:30.386Z,1008.13
2016-09-21T09:12:30.408Z,1008.12
2016-09-21T09:13:30.431Z,1008.13
2016-09-21T09:14:30.452Z,1008.09
2016-09-21T09:15:30.475Z,1008.11
2016-09-21T09:16:30.498Z,1008.14
2016-09-21T09:17:30.519Z,1008.14
2016-09-21T09:18:30.541Z,1008.13
2016-09-21T09:19:30.593Z,1008.14
2016-09-21T09:20:30.586Z,1008.15
2016-09-21T09:21:30.608Z,1008.16
2016-09-21T09:22:30.629Z,1008.16
2016-09-21T09:23:30.653Z,1008.12
2016-09-21T09:24:30.674Z,1008.14
2016-09-21T09:25:30.696Z,1008.16
2016-09-21T09:26:30.719Z,1008.12
2016-09-21T09:27:30.740Z,1008.12
2016-09-21T09:28:30.763Z,1008.13
2016-09-21T09:29:30.788Z,1008.13
2016-09-21T09:30:30.809Z,1008.09
2016-09-21T09:31:30.832Z,1008.12
2016-09-21T09:32:30.854Z,1008.08
2016-09-21T09:33:30.875Z,1008.1
2016-09-21T09:34:30.898Z,1008.12
2016-09-21T09:35:30.923Z,1008.02
2016-09-21T09:36:30.942Z,1008
2016-09-21T09:37:30.964Z,1008.03
2016-09-21T09:38:30.987Z,1007.99
2016-09-21T09:39:31.009Z,1008
2016-09-21T09:40:31.032Z,1008
2016-09-21T09:41:31.055Z,1007.99
2016-09-21T09:42:31.077Z,1008
2016-09-21T09:43:31.107Z,1008.01
2016-09-21T09:44:31.121Z,1007.99
2016-09-21T09:45:31.144Z,1008
2016-09-21T09:46:31.167Z,1007.99
2016-09-21T09:47:31.190Z,1007.98
2016-09-21T09:48:31.213Z,1007.96
2016-09-21T09:49:31.235Z,1007.95
2016-09-21T09:50:31.258Z,1007.97
2016-09-21T09:51:31.281Z,1007.95
2016-09-21T09:52:31.302Z,1007.95
2016-09-21T09:53:31.327Z,1007.91
2016-09-21T09:54:31.551Z,1007.9
2016-09-21T09:55:31.372Z,1007.94
2016-09-21T09:56:31.394Z,1007.92
2016-09-21T09:57:31.417Z,1007.88
2016-09-21T09:58:31.442Z,1007.89
2016-09-21T09:59:31.471Z,1007.9
2016-09-21T10:00:31.487Z,1007.93
2016-09-21T10:01:31.509Z,1007.9
2016-09-21T10:02:31.531Z,1007.94
2016-09-21T10:03:31.556Z,1007.88
2016-09-21T10:04:31.578Z,1007.93
2016-09-21T10:05:31.601Z,1007.92
2016-09-21T10:06:31.626Z,1007.93
2016-09-21T10:07:31.648Z,1007.9
2016-09-21T10:08:31.670Z,1007.9
2016-09-21T10:09:31.893Z,1007.94
2016-09-21T10:10:31.714Z,1007.93
2016-09-21T10:11:31.738Z,1007.95
2016-09-21T10:12:31.762Z,1007.93
2016-09-21T10:13:31.802Z,1007.9
2016-09-21T10:14:31.808Z,1007.93
2016-09-21T10:15:31.833Z,1007.92
2016-09-21T10:16:31.857Z,1007.92
2016-09-21T10:17:31.879Z,1007.95
2016-09-21T10:18:31.903Z,1007.9
2016-09-21T10:19:31.934Z,1007.9
2016-09-21T10:20:31.950Z,1007.95
2016-09-21T10:21:31.974Z,1007.9
2016-09-21T10:22:31.996Z,1007.9
2016-09-21T10:23:32.022Z,1007.92
2016-09-21T10:24:32.043Z,1007.91
2016-09-21T10:25:32.074Z,1007.92
2016-09-21T10:26:32.092Z,1007.92
2016-09-21T10:27:32.114Z,1007.95
2016-09-21T10:28:32.138Z,1007.89
2016-09-21T10:29:32.170Z,1007.88
2016-09-21T10:30:32.187Z,1007.87
2016-09-21T10:31:32.210Z,1007.89
2016-09-21T10:32:32.234Z,1007.86
2016-09-21T10:33:32.258Z,1007.86
2016-09-21T10:34:32.283Z,1007.87
2016-09-21T10:35:32.306Z,1007.87
2016-09-21T10:36:32.329Z,1007.84
2016-09-21T10:37:32.354Z,1007.84
2016-09-21T10:38:32.378Z,1007.82
2016-09-21T10:39:32.401Z,1007.85
2016-09-21T10:40:32.426Z,1007.82
2016-09-21T10:41:32.451Z,1007.81
2016-09-21T10:42:32.475Z,1007.78
2016-09-21T10:43:32.498Z,1007.82
2016-09-21T10:44:32.522Z,1007.81
2016-09-21T10:45:32.546Z,1007.8
2016-09-21T10:46:32.570Z,1007.82
2016-09-21T10:47:32.595Z,1007.81
2016-09-21T10:48:32.619Z,1007.82
2016-09-21T10:49:32.645Z,1007.82
2016-09-21T10:50:32.668Z,1007.84
2016-09-21T10:51:32.809Z,1007.82
2016-09-21T10:52:32.716Z,1007.81
2016-09-21T10:53:32.742Z,1007.77
2016-09-21T10:54:32.764Z,1007.75
2016-09-21T10:55:32.790Z,1007.73
2016-09-21T10:56:32.815Z,1007.72
2016-09-21T10:57:32.837Z,1007.69
2016-09-21T10:58:32.862Z,1007.69
2016-09-21T10:59:32.886Z,1007.67
2016-09-21T11:00:32.913Z,1007.66
2016-09-21T11:01:32.935Z,1007.62
2016-09-21T11:02:32.960Z,1007.65
2016-09-21T11:03:32.985Z,1007.68
2016-09-21T11:04:33.011Z,1007.69
2016-09-21T11:05:33.036Z,1007.68
2016-09-21T11:06:33.060Z,1007.7
2016-09-21T11:07:33.085Z,1007.68
2016-09-21T11:08:33.108Z,1007.69
2016-09-21T11:09:33.133Z,1007.73
2016-09-21T11:10:33.158Z,1007.7
2016-09-21T11:11:33.184Z,1007.74
2016-09-21T11:12:33.207Z,1007.75
2016-09-21T11:13:33.233Z,1007.77
2016-09-21T11:14:33.258Z,1007.74
2016-09-21T11:15:33.282Z,1007.73
2016-09-21T11:16:33.308Z,1007.7
2016-09-21T11:17:33.333Z,1007.71
2016-09-21T11:18:33.357Z,1007.74
2016-09-21T11:19:33.382Z,1007.74
2016-09-21T11:20:33.407Z,1007.71
2016-09-21T11:21:33.432Z,1007.68
2016-09-21T11:22:33.457Z,1007.67
2016-09-21T11:23:33.480Z,1007.69
2016-09-21T11:24:33.506Z,1007.67
2016-09-21T11:25:33.533Z,1007.68
2016-09-21T11:26:33.557Z,1007.7
2016-09-21T11:27:33.584Z,1007.66
2016-09-21T11:28:33.607Z,1007.66
2016-09-21T11:29:33.634Z,1007.64
2016-09-21T11:30:33.657Z,1007.64
2016-09-21T11:31:33.683Z,1007.66
2016-09-21T11:32:33.709Z,1007.67
2016-09-21T11:33:33.733Z,1007.65
2016-09-21T11:34:33.758Z,1007.64
2016-09-21T11:35:33.784Z,1007.63
2016-09-21T11:36:33.811Z,1007.62
2016-09-21T11:37:33.835Z,1007.66
2016-09-21T11:38:33.861Z,1007.68
2016-09-21T11:39:33.886Z,1007.66
2016-09-21T11:40:33.912Z,1007.7
2016-09-21T11:41:33.935Z,1007.73
2016-09-21T11:42:33.968Z,1007.7
2016-09-21T11:43:33.987Z,1007.7
2016-09-21T11:44:34.014Z,1007.68
2016-09-21T11:45:34.038Z,1007.7
2016-09-21T11:46:34.064Z,1007.71
2016-09-21T11:47:34.091Z,1007.72
2016-09-21T11:48:34.115Z,1007.69
2016-09-21T11:49:34.140Z,1007.72
2016-09-21T11:50:34.166Z,1007.71
2016-09-21T11:51:34.192Z,1007.72
2016-09-21T11:52:34.217Z,1007.71
2016-09-21T11:53:34.245Z,1007.7
2016-09-21T11:54:34.268Z,1007.71
2016-09-21T11:55:34.295Z,1007.74
2016-09-21T11:56:34.319Z,1007.74
2016-09-21T11:57:34.346Z,1007.69
2016-09-21T11:58:34.371Z,1007.7
2016-09-21T11:59:34.396Z,1007.69
2016-09-21T12:00:34.425Z,1007.68
2016-09-21T12:01:34.448Z,1007.68
2016-09-21T12:02:34.474Z,1007.69
2016-09-21T12:03:34.501Z,1007.7
2016-09-21T12:04:34.526Z,1007.67
2016-09-21T12:05:34.551Z,1007.71
2016-09-21T12:06:34.575Z,1007.71
2016-09-21T12:07:34.601Z,1007.74
2016-09-21T12:08:34.628Z,1007.73